Mineral Point, WI

04:32 CDT le 22 octobre 2014 (GMT -0500)
KWIMINER1 | Change Station
CLOSE
Current Station
Stations météorologiques personnelles
Location: Mineral Point, WI
Altitude: 1066 ft
Stations météo à proximité
Avis météorologiques actifs: Special Statement

Alt. 1066 ft 42.85 °N, 90.18 °W | Updated 1 minute ago

Ciel dégagé
Ciel dégagé
34.0 ° F
Paraît 34 ° F
N
0.0
Vent Variable Vent de Est
Gusts 0.0 mph

Aujourd'hui
Haut(e) -- | Bas -- ° F
--% Risque de précip.
Hier
Haut(e) -- | Bas -- ° F
Precip. -- pouce
7:22 AM 6:07 PM
Lune descendante, 2% visible
Pression 30.29 pouce
Visibilité 10.0 Miles terrestres
Nuages Ciel dégagé
Refroidissement éolien 34 ° F
Point de rosée 33 ° F
Humidité 95%
Précipitations 0.00 pouce
Profondeur de la couche neigeuse Non disponible.
UV 0 sur 12
Pollen 1.60 sur 12
Qualité de l'air Non disponible.
Flu Activity Sporadic
METAR KMRJ 220915Z AUTO 12005KT 10SM CLR 02/01 A3029 RMK AO2

More Conditions Fewer Conditions

Pression 30.29 pouce
Visibilité 10.0 Miles terrestres
Nuages Ciel dégagé
Refroidissement éolien 34 ° F
Point de rosée 33 ° F
Humidité 95%
Précipitations 0.00 pouce
Profondeur de la couche neigeuse Non disponible.
UV 0 sur 12
Pollen 1.60 sur 12
Qualité de l'air Non disponible.
Flu Activity Sporadic
METAR KMRJ 220915Z AUTO 12005KT 10SM CLR 02/01 A3029 RMK AO2

More Conditions Fewer Conditions

10-Day Weather Forecast

Almanac

Astronomie

Oct. 22, 2014 Lever Coucher
Temps réel 07:22 CDT 18:07 CDT
Crépuscule civil 06:53 CDT 18:35 CDT
Crépuscule nautique 06:20 CDT 19:08 CDT
Crépuscule astronomique 05:47 CDT 19:41 CDT
Lune 06:02 CDT 17:35 CDT
Durée de lumière visible 11h 42m
Longueur du jour
10h 44m
Tomorrow will be 2m 45s shorter.
Lune descendante, 2% of the Moon is Illuminated
Aujourd'hui
Lune descendante
Oct 23
Nouveau
Oct 30
Premier quartier
Nov 6
Pleine lune
Nov 14
Dernier quartier

Extrêmes aujourd'hui

State Highs State Lows

Community

WunderPhotos

Upload Photos

1,763,900 Photos téléchargées !

Nearby

Épaisseur de neige

Station Depth Altitude
Pas de nouvelles chutes de neige

Activité sismique

Ville Distance Mag. Time & Date
No recent earthquake activity has been reported nearby.
Minimum magnitude displayed is 2.5.

Températures des eaux côtières

Lieu Température
Aucun rapport de station

Stations météo à proximité